Time;durP1;ratioP1;P1;durP2;ratioP2;P2;SDS_P1;SDS_P2;PMS_P1;PMS_P2;Temp;Humidity;BMP_temperature;BMP_pressure;BME280_temperature;BME280_humidity;BME280_pressure;Samples;Min_cycle;Max_cycle;Signal;HPM_P1;HPM_P2
2021/05/23 00:00:49;;;;;;;0.68;0.30;;;22.40;50.60;;;;;;6294840;28;20078;-67
2021/05/23 00:03:50;;;;;;;0.30;0.30;;;22.40;50.60;;;;;;6311593;28;20039;-67
2021/05/23 00:06:50;;;;;;;0.95;0.30;;;22.40;50.60;;;;;;6316088;28;20392;-67
2021/05/23 00:09:53;;;;;;;1.10;0.40;;;22.40;50.60;;;;;;6294680;28;20116;-67
2021/05/23 00:12:57;;;;;;;0.50;0.30;;;22.40;50.70;;;;;;6305290;28;20017;-67
2021/05/23 00:16:00;;;;;;;0.47;0.38;;;22.40;50.60;;;;;;6295900;28;20052;-67
2021/05/23 00:19:01;;;;;;;0.82;0.43;;;22.40;50.60;;;;;;6319315;28;20489;-67
2021/05/23 00:22:03;;;;;;;0.68;0.43;;;22.40;50.60;;;;;;6318052;28;20073;-67
2021/05/23 00:25:05;;;;;;;0.73;0.30;;;22.40;50.60;;;;;;6270709;28;20017;-67
2021/05/23 00:28:06;;;;;;;0.52;0.40;;;22.40;50.60;;;;;;6287605;28;20059;-67
2021/05/23 00:31:07;;;;;;;1.05;0.30;;;22.40;50.60;;;;;;6294165;28;20028;-67
2021/05/23 00:34:08;;;;;;;0.40;0.30;;;22.40;50.70;;;;;;6294172;28;20379;-67
2021/05/23 00:37:09;;;;;;;0.70;0.30;;;22.40;50.60;;;;;;6303161;28;20063;-67
2021/05/23 00:40:10;;;;;;;0.30;0.30;;;22.40;50.60;;;;;;6295778;28;20031;-67
2021/05/23 00:43:15;;;;;;;1.00;0.47;;;22.40;50.60;;;;;;6305473;28;20024;-68
2021/05/23 00:46:16;;;;;;;1.55;0.40;;;22.40;50.60;;;;;;6293658;28;20106;-67
2021/05/23 00:49:17;;;;;;;0.98;0.30;;;22.40;50.50;;;;;;6307701;28;20469;-67
2021/05/23 00:52:17;;;;;;;0.82;0.32;;;22.40;50.60;;;;;;6305921;28;20524;-68
2021/05/23 00:55:19;;;;;;;0.47;0.22;;;22.40;50.50;;;;;;6312042;28;20432;-67
2021/05/23 00:58:20;;;;;;;0.40;0.20;;;22.40;50.50;;;;;;6312646;28;20428;-67
2021/05/23 01:01:46;;;;;;;0.22;0.22;;;22.40;50.60;;;;;;6305958;28;20078;-68
2021/05/23 01:04:46;;;;;;;0.60;0.40;;;22.40;50.50;;;;;;6290472;28;20097;-67
2021/05/23 01:07:47;;;;;;;0.22;0.20;;;22.40;50.50;;;;;;6299343;28;20067;-67
2021/05/23 01:10:53;;;;;;;0.20;0.20;;;22.40;50.50;;;;;;6317922;28;20468;-67
2021/05/23 01:13:57;;;;;;;0.73;0.30;;;22.40;50.60;;;;;;6302218;28;20067;-67
2021/05/23 01:16:58;;;;;;;3.53;0.50;;;22.40;50.50;;;;;;6292998;28;20028;-67
2021/05/23 01:20:09;;;;;;;0.20;0.20;;;22.40;50.60;;;;;;6304279;28;20024;-67
2021/05/23 01:23:19;;;;;;;0.20;0.20;;;22.40;50.60;;;;;;6316715;28;20055;-67
2021/05/23 01:26:23;;;;;;;0.57;0.40;;;22.40;50.60;;;;;;6273221;28;20444;-67
2021/05/23 01:29:23;;;;;;;0.60;0.38;;;22.40;50.90;;;;;;6293127;28;20480;-68
2021/05/23 01:32:25;;;;;;;0.60;0.40;;;22.40;50.80;;;;;;6269071;28;20025;-67
2021/05/23 01:35:37;;;;;;;1.10;0.60;;;22.40;50.80;;;;;;6304588;28;20060;-67
2021/05/23 01:38:38;;;;;;;0.40;0.30;;;22.30;50.80;;;;;;6317701;28;20358;-67
2021/05/23 01:41:40;;;;;;;0.40;0.30;;;22.30;50.80;;;;;;6272072;28;20032;-67
2021/05/23 01:44:41;;;;;;;0.30;0.30;;;22.30;50.80;;;;;;6292214;28;20057;-67
2021/05/23 01:47:42;;;;;;;0.30;0.30;;;22.30;50.70;;;;;;6317369;28;20641;-68
2021/05/23 01:50:43;;;;;;;0.75;0.30;;;22.30;50.80;;;;;;6303517;28;20048;-67
2021/05/23 01:53:43;;;;;;;0.35;0.28;;;22.30;50.80;;;;;;6296977;28;20028;-67
2021/05/23 01:56:44;;;;;;;0.40;0.30;;;22.30;50.80;;;;;;6315946;28;20028;-67
2021/05/23 01:59:45;;;;;;;0.47;0.38;;;22.30;50.80;;;;;;6299283;28;20020;-67
2021/05/23 02:02:46;;;;;;;0.20;0.20;;;22.30;50.80;;;;;;6292254;28;20478;-67
2021/05/23 02:05:49;;;;;;;0.20;0.20;;;22.30;50.80;;;;;;6303449;28;20028;-67
2021/05/23 02:08:50;;;;;;;0.55;0.30;;;22.30;50.80;;;;;;6310088;28;20069;-67
2021/05/23 02:11:55;;;;;;;0.73;0.40;;;22.30;50.80;;;;;;6309586;28;20028;-67
2021/05/23 02:14:56;;;;;;;0.20;0.20;;;22.30;50.80;;;;;;6316368;28;20099;-67
2021/05/23 02:17:57;;;;;;;0.65;0.22;;;22.30;50.80;;;;;;6290896;28;20074;-67
2021/05/23 02:20:58;;;;;;;1.98;0.40;;;22.30;50.80;;;;;;6320584;28;20036;-67
2021/05/23 02:23:59;;;;;;;0.52;0.32;;;22.30;50.80;;;;;;6315405;28;20032;-67
2021/05/23 02:26:59;;;;;;;0.43;0.25;;;22.30;50.80;;;;;;6297072;28;20043;-67
2021/05/23 02:30:00;;;;;;;0.28;0.20;;;22.30;50.80;;;;;;6309894;28;20039;-67
2021/05/23 02:33:02;;;;;;;0.93;0.40;;;22.30;50.80;;;;;;6297490;28;20036;-67
2021/05/23 02:36:03;;;;;;;0.30;0.22;;;22.30;50.80;;;;;;6312297;28;20028;-67
2021/05/23 02:39:04;;;;;;;0.60;0.30;;;22.30;50.80;;;;;;6302424;28;20028;-67
2021/05/23 02:42:05;;;;;;;0.63;0.30;;;22.30;50.80;;;;;;6320376;28;20557;-68
2021/05/23 02:45:08;;;;;;;0.30;0.30;;;22.30;50.80;;;;;;6307839;28;20027;-67
2021/05/23 02:48:10;;;;;;;0.55;0.30;;;22.30;50.80;;;;;;6318532;28;20492;-67
2021/05/23 02:51:11;;;;;;;0.40;0.30;;;22.30;50.80;;;;;;6296430;28;20056;-67
2021/05/23 02:54:11;;;;;;;0.35;0.30;;;22.30;50.80;;;;;;6290685;28;20655;-67
2021/05/23 02:57:13;;;;;;;0.38;0.28;;;22.30;50.80;;;;;;6281268;28;20031;-67
2021/05/23 03:00:16;;;;;;;0.20;0.20;;;22.30;50.90;;;;;;6297803;28;20017;-67
2021/05/23 03:03:17;;;;;;;0.52;0.25;;;22.30;50.80;;;;;;6320027;28;20126;-67
2021/05/23 03:06:18;;;;;;;0.40;0.20;;;22.30;50.80;;;;;;6295434;28;20555;-67
2021/05/23 03:09:18;;;;;;;0.13;0.13;;;22.30;50.80;;;;;;6274215;28;20028;-67
2021/05/23 03:12:19;;;;;;;0.20;0.20;;;22.30;50.80;;;;;;6308760;28;20039;-67
2021/05/23 03:15:22;;;;;;;0.52;0.30;;;22.30;50.80;;;;;;6309780;28;20033;-67
2021/05/23 03:18:23;;;;;;;0.47;0.22;;;22.30;50.80;;;;;;6316031;28;20031;-68
2021/05/23 03:21:23;;;;;;;0.13;0.13;;;22.30;50.80;;;;;;6303186;28;20049;-68
2021/05/23 03:24:24;;;;;;;0.30;0.30;;;22.30;50.80;;;;;;6319534;28;20108;-68
2021/05/23 03:27:25;;;;;;;0.40;0.20;;;22.30;50.70;;;;;;6319429;28;20115;-68
2021/05/23 03:30:29;;;;;;;0.10;0.10;;;22.30;51.40;;;;;;6319687;28;20401;-68
2021/05/23 03:33:29;;;;;;;0.30;0.20;;;22.30;50.70;;;;;;6320825;28;20043;-68
2021/05/23 03:36:30;;;;;;;0.10;0.10;;;22.30;50.70;;;;;;6319897;28;20028;-68
2021/05/23 03:39:30;;;;;;;0.32;0.30;;;22.30;50.70;;;;;;6316802;28;20103;-68
2021/05/23 03:42:31;;;;;;;0.82;0.30;;;22.30;50.70;;;;;;6279147;28;20027;-68
2021/05/23 03:45:33;;;;;;;1.63;0.30;;;22.30;50.70;;;;;;6304656;28;20024;-68
2021/05/23 03:48:34;;;;;;;0.25;0.20;;;22.30;50.70;;;;;;6319992;28;20542;-68
2021/05/23 03:51:35;;;;;;;0.60;0.35;;;22.30;50.70;;;;;;6319458;28;20040;-68
2021/05/23 03:54:36;;;;;;;0.95;0.30;;;22.30;50.70;;;;;;6296433;28;20074;-68
2021/05/23 03:57:37;;;;;;;0.60;0.30;;;22.30;50.70;;;;;;6310361;28;20388;-68
2021/05/23 04:00:44;;;;;;;0.80;0.40;;;22.30;50.80;;;;;;6319700;28;20024;-68
2021/05/23 04:03:45;;;;;;;0.30;0.20;;;22.30;50.80;;;;;;6311109;28;20070;-68
2021/05/23 04:06:45;;;;;;;0.30;0.20;;;22.30;50.80;;;;;;6320017;28;20435;-68
2021/05/23 04:09:48;;;;;;;0.30;0.20;;;22.30;50.70;;;;;;6271612;28;20799;-68
2021/05/23 04:12:50;;;;;;;0.30;0.30;;;22.30;50.80;;;;;;6319908;28;20099;-68
2021/05/23 04:15:50;;;;;;;0.20;0.20;;;22.30;50.70;;;;;;6310445;28;20024;-68
2021/05/23 04:18:51;;;;;;;0.35;0.30;;;22.30;50.70;;;;;;6309037;28;20433;-68
2021/05/23 04:21:52;;;;;;;0.40;0.28;;;22.30;50.80;;;;;;6319496;28;20030;-68
2021/05/23 04:24:52;;;;;;;1.13;0.20;;;22.30;50.70;;;;;;6296658;28;20020;-68
2021/05/23 04:27:53;;;;;;;0.40;0.20;;;22.30;50.70;;;;;;6319061;28;20438;-68
2021/05/23 04:30:56;;;;;;;0.30;0.20;;;22.30;50.70;;;;;;6302631;28;20035;-68
2021/05/23 04:33:58;;;;;;;0.25;0.25;;;22.30;50.70;;;;;;6319096;28;20497;-68
2021/05/23 04:36:59;;;;;;;0.40;0.30;;;22.30;50.80;;;;;;6318766;28;20759;-68
2021/05/23 04:40:00;;;;;;;0.38;0.20;;;22.30;50.70;;;;;;6318841;28;20036;-68
2021/05/23 04:43:01;;;;;;;0.20;0.20;;;22.30;50.80;;;;;;6315520;28;20043;-68
2021/05/23 04:46:02;;;;;;;0.20;0.20;;;22.30;50.70;;;;;;6301705;28;20026;-68
2021/05/23 04:49:03;;;;;;;0.38;0.30;;;22.30;50.80;;;;;;6302213;28;20063;-68
2021/05/23 04:52:04;;;;;;;0.20;0.20;;;22.30;50.80;;;;;;6304191;28;20059;-68
2021/05/23 04:55:08;;;;;;;0.40;0.30;;;22.30;50.70;;;;;;6308757;28;20035;-68
2021/05/23 04:58:09;;;;;;;0.40;0.28;;;22.30;50.70;;;;;;6318202;28;20023;-68
2021/05/23 05:01:10;;;;;;;0.57;0.25;;;22.30;50.70;;;;;;6306890;28;20094;-68
2021/05/23 05:04:10;;;;;;;0.40;0.20;;;22.30;50.80;;;;;;6279253;28;20060;-68
2021/05/23 05:07:11;;;;;;;0.22;0.20;;;22.30;50.80;;;;;;6306356;28;20055;-68
2021/05/23 05:10:13;;;;;;;0.22;0.20;;;22.30;50.80;;;;;;6317731;28;20100;-68
2021/05/23 05:13:14;;;;;;;0.57;0.40;;;22.30;50.80;;;;;;6298642;28;20017;-68
2021/05/23 05:16:14;;;;;;;0.20;0.20;;;22.30;50.80;;;;;;6312785;28;20035;-67
2021/05/23 05:19:15;;;;;;;0.40;0.25;;;22.30;50.70;;;;;;6298234;28;20055;-66
2021/05/23 05:22:15;;;;;;;0.65;0.22;;;22.30;50.70;;;;;;6317631;28;20024;-66
2021/05/23 05:25:16;;;;;;;0.20;0.20;;;22.30;50.80;;;;;;6317269;28;20052;-66
2021/05/23 05:28:17;;;;;;;0.20;0.20;;;22.30;50.80;;;;;;6317669;28;20024;-66
2021/05/23 05:31:17;;;;;;;0.65;0.20;;;22.30;50.70;;;;;;6317164;28;20031;-66
2021/05/23 05:34:18;;;;;;;0.47;0.30;;;22.30;50.80;;;;;;6317697;28;20032;-65
2021/05/23 05:37:19;;;;;;;0.20;0.20;;;22.30;50.70;;;;;;6315980;28;20040;-66
2021/05/23 05:40:21;;;;;;;0.15;0.15;;;22.30;50.80;;;;;;6317190;28;20126;-66
2021/05/23 05:43:23;;;;;;;0.20;0.20;;;22.30;51.40;;;;;;6317174;28;20024;-66
2021/05/23 05:46:24;;;;;;;0.38;0.25;;;22.30;50.80;;;;;;6315802;28;20050;-66
2021/05/23 05:49:24;;;;;;;0.10;0.10;;;22.30;50.80;;;;;;6294345;28;20036;-66
2021/05/23 05:52:26;;;;;;;0.38;0.30;;;22.30;50.70;;;;;;6307825;28;20173;-67
2021/05/23 05:55:26;;;;;;;0.35;0.15;;;22.20;50.70;;;;;;6289932;28;20031;-67
2021/05/23 05:58:27;;;;;;;0.20;0.20;;;22.30;50.80;;;;;;6309635;28;20051;-66
2021/05/23 06:01:27;;;;;;;0.55;0.20;;;22.30;50.80;;;;;;6310307;28;20060;-65
2021/05/23 06:04:28;;;;;;;0.20;0.20;;;22.30;50.80;;;;;;6316209;28;20028;-66
2021/05/23 06:07:29;;;;;;;0.32;0.20;;;22.30;50.80;;;;;;6316875;28;20096;-66
2021/05/23 06:10:29;;;;;;;0.20;0.20;;;22.30;50.80;;;;;;6315737;28;20016;-66
2021/05/23 06:13:30;;;;;;;0.10;0.10;;;22.30;50.80;;;;;;6316728;28;20024;-67
2021/05/23 06:16:31;;;;;;;0.20;0.20;;;22.30;50.80;;;;;;6316840;28;20107;-66
2021/05/23 06:19:31;;;;;;;0.22;0.20;;;22.30;50.80;;;;;;6316557;28;20024;-69
2021/05/23 06:22:32;;;;;;;0.20;0.20;;;22.30;50.70;;;;;;6317689;28;20020;-68
2021/05/23 06:25:33;;;;;;;0.47;0.28;;;22.30;50.70;;;;;;6311721;28;20099;-66
2021/05/23 06:28:33;;;;;;;0.20;0.20;;;22.30;50.70;;;;;;6293073;28;20107;-66
2021/05/23 06:31:34;;;;;;;0.20;0.20;;;22.30;50.70;;;;;;6306891;28;20028;-69
2021/05/23 06:34:35;;;;;;;0.28;0.22;;;22.30;50.70;;;;;;6317233;28;20100;-68
2021/05/23 06:37:35;;;;;;;0.43;0.20;;;22.30;50.70;;;;;;6296071;28;20545;-66
2021/05/23 06:40:36;;;;;;;0.30;0.30;;;22.30;50.80;;;;;;6292123;28;20025;-66
2021/05/23 06:43:37;;;;;;;0.30;0.20;;;22.30;50.80;;;;;;6305045;28;20077;-66
2021/05/23 06:46:38;;;;;;;0.25;0.10;;;22.30;50.70;;;;;;6304593;28;20078;-66
2021/05/23 06:49:39;;;;;;;0.65;0.25;;;22.30;50.70;;;;;;6290510;28;20028;-67
2021/05/23 06:52:39;;;;;;;0.17;0.13;;;22.30;50.70;;;;;;6305655;28;20549;-66
2021/05/23 06:55:41;;;;;;;0.20;0.20;;;22.30;50.70;;;;;;6309551;28;20032;-66
2021/05/23 06:58:44;;;;;;;0.20;0.20;;;22.30;50.80;;;;;;6291212;28;20053;-66
2021/05/23 07:01:45;;;;;;;0.45;0.20;;;22.30;50.70;;;;;;6305607;28;20039;-66
2021/05/23 07:04:47;;;;;;;0.20;0.20;;;22.30;50.70;;;;;;6291672;28;20024;-66
2021/05/23 07:07:47;;;;;;;0.57;0.20;;;22.30;50.70;;;;;;6309615;28;20024;-66
2021/05/23 07:10:48;;;;;;;0.80;0.20;;;22.30;50.70;;;;;;6295584;28;20107;-66
2021/05/23 07:13:49;;;;;;;0.20;0.20;;;22.30;50.80;;;;;;6281869;28;20580;-66
2021/05/23 07:16:49;;;;;;;0.10;0.10;;;22.30;50.70;;;;;;6298361;28;20024;-66
2021/05/23 07:19:51;;;;;;;0.10;0.10;;;22.30;50.70;;;;;;6296015;28;20051;-66
2021/05/23 07:22:52;;;;;;;0.10;0.10;;;22.30;50.80;;;;;;6312997;28;20540;-66
2021/05/23 07:25:53;;;;;;;0.40;0.20;;;22.30;50.70;;;;;;6321381;28;20860;-66
2021/05/23 07:28:54;;;;;;;0.10;0.10;;;22.30;50.70;;;;;;6321154;28;20058;-66
2021/05/23 07:31:54;;;;;;;0.20;0.20;;;22.30;50.80;;;;;;6313873;28;20071;-66
2021/05/23 07:34:55;;;;;;;0.38;0.20;;;22.30;50.80;;;;;;6296302;28;20059;-66
2021/05/23 07:37:56;;;;;;;0.30;0.10;;;22.30;50.70;;;;;;6281119;28;20025;-66
2021/05/23 07:40:56;;;;;;;0.10;0.10;;;22.30;50.80;;;;;;6311067;28;20020;-66
2021/05/23 07:43:57;;;;;;;0.20;0.20;;;22.30;50.70;;;;;;6306273;28;20362;-65
2021/05/23 07:46:57;;;;;;;0.20;0.20;;;22.30;50.70;;;;;;6319270;28;20032;-66
2021/05/23 07:49:58;;;;;;;0.95;0.30;;;22.30;51.40;;;;;;6304307;28;20052;-66
2021/05/23 07:53:00;;;;;;;0.15;0.15;;;22.30;50.70;;;;;;6295483;28;20032;-66
2021/05/23 07:56:01;;;;;;;0.25;0.10;;;22.30;50.70;;;;;;6318562;28;20114;-66
2021/05/23 07:59:02;;;;;;;0.73;0.20;;;22.30;50.70;;;;;;6313148;28;20389;-66
2021/05/23 08:02:03;;;;;;;0.20;0.20;;;22.30;50.70;;;;;;6295309;28;20032;-66
2021/05/23 08:05:05;;;;;;;0.30;0.20;;;22.30;50.70;;;;;;6295195;28;20046;-66
2021/05/23 08:08:06;;;;;;;0.20;0.20;;;22.30;50.70;;;;;;6295150;28;20074;-66
2021/05/23 08:11:06;;;;;;;0.10;0.10;;;22.30;50.70;;;;;;6316373;28;20104;-66
2021/05/23 08:14:10;;;;;;;0.30;0.25;;;22.30;50.70;;;;;;6315666;28;20025;-66
2021/05/23 08:17:11;;;;;;;0.10;0.10;;;22.30;50.80;;;;;;6294884;28;20186;-66
2021/05/23 08:20:15;;;;;;;0.30;0.20;;;22.30;50.70;;;;;;6293543;28;20036;-66
2021/05/23 08:23:15;;;;;;;0.17;0.17;;;22.30;50.70;;;;;;6285999;28;20537;-66
2021/05/23 08:26:16;;;;;;;0.20;0.20;;;22.30;50.70;;;;;;6312209;28;20028;-66
2021/05/23 08:29:17;;;;;;;0.95;0.10;;;22.30;50.60;;;;;;6302828;28;20101;-66
2021/05/23 08:32:18;;;;;;;0.20;0.20;;;22.30;50.60;;;;;;6294568;28;20038;-66
2021/05/23 08:35:18;;;;;;;0.47;0.20;;;22.30;50.50;;;;;;6293018;28;20104;-66
2021/05/23 08:38:19;;;;;;;0.20;0.20;;;22.30;50.60;;;;;;6287195;28;20067;-66
2021/05/23 08:41:20;;;;;;;0.13;0.10;;;22.30;50.50;;;;;;6289574;28;20109;-66
2021/05/23 08:44:22;;;;;;;0.20;0.20;;;22.30;50.70;;;;;;6297372;28;20043;-65
2021/05/23 08:47:25;;;;;;;0.32;0.20;;;22.30;50.60;;;;;;6318334;28;20027;-66
2021/05/23 08:50:26;;;;;;;0.10;0.10;;;22.30;50.60;;;;;;6318897;28;20119;-66
2021/05/23 08:53:27;;;;;;;0.10;0.10;;;22.30;50.60;;;;;;6297474;28;20035;-66
2021/05/23 08:56:28;;;;;;;0.17;0.15;;;22.30;50.60;;;;;;6269416;28;20032;-66
2021/05/23 08:59:28;;;;;;;0.17;0.10;;;22.30;50.60;;;;;;6282937;28;20028;-66
2021/05/23 09:02:29;;;;;;;0.10;0.10;;;22.30;50.70;;;;;;6294196;28;20123;-66
2021/05/23 09:05:38;;;;;;;0.20;0.20;;;22.30;50.60;;;;;;6293551;28;20027;-65
2021/05/23 09:08:39;;;;;;;0.28;0.20;;;22.30;50.50;;;;;;6296090;28;20061;-66
2021/05/23 09:11:55;;;;;;;0.55;0.20;;;22.30;50.60;;;;;;6292211;28;20452;-65
2021/05/23 09:14:56;;;;;;;0.30;0.10;;;22.30;50.50;;;;;;6294368;28;20024;-66
2021/05/23 09:18:15;;;;;;;0.20;0.20;;;22.30;50.70;;;;;;6317247;28;20028;-66
2021/05/23 09:21:18;;;;;;;0.30;0.10;;;22.30;50.60;;;;;;6285113;28;20096;-66
2021/05/23 09:24:19;;;;;;;0.25;0.20;;;22.30;50.70;;;;;;6278281;28;20571;-66
2021/05/23 09:27:24;;;;;;;0.20;0.20;;;22.30;50.50;;;;;;6278482;28;20035;-66
2021/05/23 09:30:29;;;;;;;0.20;0.10;;;22.30;50.70;;;;;;6290665;28;20486;-66
2021/05/23 09:33:30;;;;;;;0.08;0.08;;;22.30;50.70;;;;;;6293443;28;20029;-66
2021/05/23 09:36:44;;;;;;;0.10;0.10;;;22.30;50.60;;;;;;6293041;28;20078;-66
2021/05/23 09:39:44;;;;;;;0.30;0.20;;;22.30;50.60;;;;;;6299644;28;20023;-66
2021/05/23 09:42:51;;;;;;;0.25;0.25;;;22.30;50.70;;;;;;6318482;28;20493;-66
2021/05/23 09:45:53;;;;;;;0.30;0.20;;;22.30;50.60;;;;;;6303029;28;20032;-66
2021/05/23 09:48:54;;;;;;;0.63;0.17;;;22.30;50.60;;;;;;6292969;28;20029;-66
2021/05/23 09:51:56;;;;;;;0.10;0.10;;;22.30;50.70;;;;;;6292588;28;20122;-66
2021/05/23 09:54:59;;;;;;;0.10;0.10;;;22.30;50.60;;;;;;6287865;28;20042;-66
2021/05/23 09:58:00;;;;;;;0.10;0.10;;;22.30;50.70;;;;;;6312741;28;20020;-66
2021/05/23 10:01:00;;;;;;;0.40;0.10;;;22.30;50.70;;;;;;6317563;28;20028;-66
2021/05/23 10:04:02;;;;;;;0.25;0.15;;;22.30;50.60;;;;;;6318375;28;20027;-67
2021/05/23 10:07:11;;;;;;;0.60;0.10;;;22.30;50.50;;;;;;6280397;28;20021;-67
2021/05/23 10:10:12;;;;;;;0.20;0.15;;;22.30;50.70;;;;;;6287178;28;20017;-67
2021/05/23 10:13:13;;;;;;;2.97;0.10;;;22.30;50.70;;;;;;6303804;28;20039;-67
2021/05/23 10:16:15;;;;;;;1.73;0.10;;;22.30;50.80;;;;;;6305834;28;20485;-67
2021/05/23 10:19:18;;;;;;;0.63;0.20;;;22.30;50.60;;;;;;6288266;28;20108;-66
2021/05/23 10:22:20;;;;;;;1.40;0.30;;;22.40;50.60;;;;;;6288941;28;20025;-66
2021/05/23 10:25:21;;;;;;;2.05;0.20;;;22.40;50.70;;;;;;6295378;28;20024;-66
2021/05/23 10:28:23;;;;;;;1.95;0.10;;;22.40;50.70;;;;;;6300277;28;20389;-66
2021/05/23 10:31:35;;;;;;;1.02;0.30;;;22.40;50.60;;;;;;6293321;28;20119;-66
2021/05/23 10:34:42;;;;;;;0.20;0.20;;;22.40;50.60;;;;;;6267797;28;20030;-67
2021/05/23 10:37:45;;;;;;;0.10;0.10;;;22.40;50.70;;;;;;6261902;28;20024;-67
2021/05/23 10:40:58;;;;;;;0.65;0.10;;;22.40;50.70;;;;;;6283757;28;20478;-66
2021/05/23 10:44:02;;;;;;;0.85;0.10;;;22.40;50.70;;;;;;6298423;28;20016;-66
2021/05/23 10:47:10;;;;;;;0.75;0.20;;;22.40;50.80;;;;;;6311022;28;20503;-66
2021/05/23 10:50:12;;;;;;;0.20;0.10;;;22.40;50.80;;;;;;6300481;28;20052;-67
2021/05/23 10:53:14;;;;;;;1.17;0.22;;;22.40;50.80;;;;;;6308656;28;20025;-66
2021/05/23 10:56:29;;;;;;;0.68;0.17;;;22.40;51.40;;;;;;6297473;28;20052;-66
2021/05/23 10:59:30;;;;;;;1.65;0.30;;;22.40;51.30;;;;;;6295889;28;20068;-66
2021/05/23 11:02:36;;;;;;;0.17;0.15;;;22.50;51.20;;;;;;6308268;28;20031;-65
2021/05/23 11:05:37;;;;;;;0.20;0.20;;;22.50;51.00;;;;;;6295315;28;20028;-67
2021/05/23 11:08:37;;;;;;;1.27;0.20;;;22.50;50.80;;;;;;6305930;28;20039;-66
2021/05/23 11:11:39;;;;;;;2.50;0.10;;;22.50;50.80;;;;;;6294583;28;20108;-67
2021/05/23 11:14:40;;;;;;;1.83;0.20;;;22.40;50.90;;;;;;6303775;28;20512;-66
2021/05/23 11:17:41;;;;;;;1.42;0.20;;;22.50;51.00;;;;;;6306003;28;20515;-66
2021/05/23 11:20:42;;;;;;;0.47;0.20;;;22.50;50.90;;;;;;6296069;28;20025;-66
2021/05/23 11:23:51;;;;;;;2.50;0.25;;;22.50;50.90;;;;;;6290822;28;20025;-66
2021/05/23 11:26:52;;;;;;;0.30;0.20;;;22.50;50.90;;;;;;6274183;28;20029;-66
2021/05/23 11:29:53;;;;;;;0.45;0.10;;;22.50;50.80;;;;;;6297260;28;20086;-66
2021/05/23 11:32:58;;;;;;;1.88;0.20;;;22.50;51.10;;;;;;6282249;28;20540;-66
2021/05/23 11:35:59;;;;;;;0.75;0.20;;;22.50;51.00;;;;;;6295714;28;20419;-65
2021/05/23 11:39:05;;;;;;;0.20;0.20;;;22.50;50.90;;;;;;6304525;28;20077;-65
2021/05/23 11:42:08;;;;;;;0.63;0.20;;;22.50;51.00;;;;;;6310028;28;20051;-65
2021/05/23 11:45:20;;;;;;;0.52;0.20;;;22.50;51.00;;;;;;6294777;28;20522;-64
2021/05/23 11:48:33;;;;;;;1.13;0.30;;;22.50;51.00;;;;;;6298141;28;20032;-65
2021/05/23 11:51:34;;;;;;;2.10;0.30;;;22.50;51.10;;;;;;6293615;28;20498;-65
2021/05/23 11:54:35;;;;;;;0.77;0.20;;;22.50;51.00;;;;;;6303478;28;20035;-64
2021/05/23 11:57:37;;;;;;;2.10;0.20;;;22.50;51.10;;;;;;6311331;28;20023;-64
2021/05/23 12:00:38;;;;;;;0.68;0.30;;;22.50;51.10;;;;;;6302762;28;20467;-64
2021/05/23 12:03:39;;;;;;;1.98;0.43;;;22.50;51.10;;;;;;6305522;28;20012;-65
2021/05/23 12:06:53;;;;;;;1.35;0.57;;;22.50;51.10;;;;;;6300000;28;20093;-65
2021/05/23 12:09:57;;;;;;;0.20;0.20;;;22.50;51.10;;;;;;6293341;28;20025;-65
2021/05/23 12:12:59;;;;;;;0.60;0.20;;;22.50;51.10;;;;;;6300661;28;20028;-65
2021/05/23 12:16:01;;;;;;;1.95;0.20;;;22.50;51.10;;;;;;6304632;28;20244;-65
2021/05/23 12:19:02;;;;;;;0.85;0.30;;;22.50;51.10;;;;;;6305153;28;20025;-65
2021/05/23 12:22:03;;;;;;;0.43;0.20;;;22.50;51.20;;;;;;6297022;28;20020;-64
2021/05/23 12:25:03;;;;;;;0.90;0.28;;;22.50;51.20;;;;;;6302341;28;20048;-64
2021/05/23 12:28:04;;;;;;;1.17;0.25;;;22.50;51.20;;;;;;6297065;28;20059;-64
2021/05/23 12:31:06;;;;;;;2.58;0.35;;;22.50;51.10;;;;;;6305601;28;20028;-64
2021/05/23 12:34:13;;;;;;;0.47;0.20;;;22.50;51.10;;;;;;6294650;28;20032;-64
2021/05/23 12:37:15;;;;;;;0.88;0.20;;;22.50;51.10;;;;;;6291653;28;20385;-65
2021/05/23 12:40:24;;;;;;;0.57;0.28;;;22.50;51.10;;;;;;6304130;28;20033;-68
2021/05/23 12:43:27;;;;;;;1.23;0.20;;;22.50;51.10;;;;;;6308748;28;20020;-68
2021/05/23 12:46:28;;;;;;;0.57;0.20;;;22.50;51.10;;;;;;6307121;28;20547;-68
2021/05/23 12:49:34;;;;;;;0.20;0.20;;;22.50;51.10;;;;;;6300316;28;20063;-68
2021/05/23 12:52:34;;;;;;;1.08;0.28;;;22.50;51.10;;;;;;6285537;28;20068;-69
2021/05/23 12:55:40;;;;;;;0.95;0.25;;;22.50;51.70;;;;;;6291967;28;20027;-68
2021/05/23 12:58:53;;;;;;;0.70;0.20;;;22.50;51.00;;;;;;6289196;28;20051;-68
2021/05/23 13:01:55;;;;;;;2.20;0.47;;;22.50;51.00;;;;;;6306098;28;20017;-67
2021/05/23 13:05:01;;;;;;;0.85;0.20;;;22.50;51.10;;;;;;6308345;28;20079;-68
2021/05/23 13:08:14;;;;;;;0.82;0.30;;;22.50;51.00;;;;;;6284472;28;20024;-68
2021/05/23 13:11:20;;;;;;;1.75;0.20;;;22.50;50.90;;;;;;6301122;28;20385;-68
2021/05/23 13:14:22;;;;;;;0.77;0.20;;;22.50;51.00;;;;;;6292018;28;20028;-69
2021/05/23 13:17:31;;;;;;;1.55;0.30;;;22.50;51.00;;;;;;6291141;28;20085;-68
2021/05/23 13:20:37;;;;;;;0.20;0.20;;;22.50;51.10;;;;;;6300005;28;20016;-68
2021/05/23 13:23:40;;;;;;;0.10;0.10;;;22.50;51.20;;;;;;6290568;28;20016;-69
2021/05/23 13:26:49;;;;;;;1.02;0.30;;;22.50;51.20;;;;;;6309917;28;20051;-68
2021/05/23 13:29:50;;;;;;;1.10;0.40;;;22.50;51.20;;;;;;6283548;28;20622;-68
2021/05/23 13:32:51;;;;;;;0.28;0.20;;;22.50;51.20;;;;;;6292938;28;20028;-68
2021/05/23 13:35:52;;;;;;;3.53;0.22;;;22.50;51.20;;;;;;6301572;28;20107;-67
2021/05/23 13:38:52;;;;;;;3.75;0.50;;;22.50;51.70;;;;;;6295422;28;20551;-68
2021/05/23 13:41:53;;;;;;;0.30;0.20;;;22.50;51.00;;;;;;6296685;28;20082;-68
2021/05/23 13:44:54;;;;;;;0.43;0.20;;;22.50;49.20;;;;;;6273974;28;20055;-67
2021/05/23 13:47:55;;;;;;;0.10;0.10;;;22.50;48.70;;;;;;6226688;28;20441;-68
2021/05/23 13:50:55;;;;;;;0.60;0.35;;;22.50;48.30;;;;;;6271866;28;20123;-67
2021/05/23 13:53:56;;;;;;;0.28;0.20;;;22.60;47.90;;;;;;6309236;28;20537;-68
2021/05/23 13:56:58;;;;;;;0.40;0.22;;;22.60;47.60;;;;;;6297941;28;20421;-67
2021/05/23 13:59:59;;;;;;;0.45;0.25;;;22.70;47.30;;;;;;6276467;28;20025;-68
2021/05/23 14:03:15;;;;;;;3.63;0.63;;;22.80;47.10;;;;;;6243365;28;20147;-67
2021/05/23 14:06:15;;;;;;;0.50;0.30;;;22.80;46.90;;;;;;6275245;28;20096;-67
2021/05/23 14:09:20;;;;;;;1.23;0.50;;;22.90;46.80;;;;;;6274684;28;20045;-68
2021/05/23 14:12:21;;;;;;;0.22;0.22;;;22.90;46.70;;;;;;6245763;28;20091;-64
2021/05/23 14:15:23;;;;;;;1.77;0.50;;;22.90;46.60;;;;;;6275248;28;20115;-64
2021/05/23 14:18:25;;;;;;;0.93;0.40;;;22.90;46.60;;;;;;6290786;28;20050;-64
2021/05/23 14:21:25;;;;;;;1.30;0.50;;;23.00;46.50;;;;;;6308122;28;20027;-64
2021/05/23 14:24:26;;;;;;;0.85;0.47;;;23.00;46.50;;;;;;6272911;28;20033;-64
2021/05/23 14:27:27;;;;;;;3.05;0.63;;;23.00;46.40;;;;;;6250949;28;20032;-64
2021/05/23 14:30:28;;;;;;;2.10;0.52;;;23.00;46.40;;;;;;6234004;28;20040;-64
2021/05/23 14:33:29;;;;;;;1.25;0.43;;;23.00;46.20;;;;;;6296348;28;20020;-64
2021/05/23 14:36:30;;;;;;;4.18;1.00;;;23.00;46.20;;;;;;6290099;28;20226;-64
2021/05/23 14:39:33;;;;;;;1.20;0.50;;;23.00;46.20;;;;;;6256664;28;20050;-63
2021/05/23 14:42:34;;;;;;;3.40;0.70;;;23.00;46.10;;;;;;6260085;28;20070;-63
2021/05/23 14:45:35;;;;;;;2.15;0.77;;;23.10;46.10;;;;;;6294885;28;20439;-64
2021/05/23 14:48:36;;;;;;;1.90;0.55;;;23.00;46.00;;;;;;6296869;28;20112;-63
2021/05/23 14:51:38;;;;;;;3.25;0.90;;;23.10;46.10;;;;;;6301442;28;20521;-63
2021/05/23 14:54:38;;;;;;;1.98;0.65;;;23.10;45.90;;;;;;6279835;28;20043;-63
2021/05/23 14:57:43;;;;;;;2.20;0.50;;;23.00;45.80;;;;;;6245720;28;20032;-63
2021/05/23 15:00:45;;;;;;;1.85;0.82;;;23.00;45.70;;;;;;6294374;28;20025;-64
2021/05/23 15:03:46;;;;;;;1.88;0.73;;;23.10;45.80;;;;;;6275320;28;20120;-64
2021/05/23 15:06:47;;;;;;;2.88;0.93;;;23.10;45.70;;;;;;6283076;28;20055;-64
2021/05/23 15:09:48;;;;;;;3.15;0.80;;;23.10;45.80;;;;;;6255500;28;20029;-64
2021/05/23 15:12:49;;;;;;;0.90;0.50;;;23.10;45.70;;;;;;6226399;28;20097;-65
2021/05/23 15:15:50;;;;;;;3.20;1.08;;;23.10;45.60;;;;;;6222207;28;20037;-64
2021/05/23 15:18:50;;;;;;;1.95;1.00;;;23.10;45.60;;;;;;6285891;28;20678;-67
2021/05/23 15:21:51;;;;;;;2.67;0.90;;;23.10;45.70;;;;;;6278299;28;20115;-67
2021/05/23 15:24:52;;;;;;;3.53;1.13;;;23.10;45.60;;;;;;6275794;28;20056;-67
2021/05/23 15:31:09;;;;;;;4.15;1.38;;;23.20;45.70;;;;;;6240341;28;20036;-67
2021/05/23 15:34:10;;;;;;;7.60;1.63;;;23.10;45.60;;;;;;6261386;28;20024;-68
2021/05/23 15:37:11;;;;;;;4.68;1.70;;;23.10;45.60;;;;;;6297929;28;20035;-68
2021/05/23 15:40:13;;;;;;;3.50;1.40;;;23.10;45.70;;;;;;6235242;28;20568;-67
2021/05/23 15:43:14;;;;;;;35.33;3.63;;;23.20;45.60;;;;;;6246425;28;20175;-67
2021/05/23 15:46:14;;;;;;;24.20;3.22;;;23.20;45.90;;;;;;6288559;28;20024;-67
2021/05/23 15:49:15;;;;;;;15.15;3.33;;;23.20;45.80;;;;;;6276116;28;20529;-68